createdAt,value
2023-02-04T00:00:37.996Z,2.60
2023-02-04T00:03:05.452Z,0.70
2023-02-04T00:05:35.494Z,0.70
2023-02-04T00:08:06.097Z,0.70
2023-02-04T00:10:36.404Z,0.70
2023-02-04T00:13:05.460Z,13.50
2023-02-04T00:18:06.496Z,13.50
2023-02-04T00:20:35.539Z,13.50
2023-02-04T00:23:05.679Z,0.10
2023-02-04T00:25:35.428Z,0.10
2023-02-04T00:28:05.545Z,0.10
2023-02-04T00:30:35.536Z,0.10
2023-02-04T00:33:05.538Z,0.10
2023-02-04T00:35:36.380Z,0.10
2023-02-04T00:38:06.032Z,0.10
2023-02-04T00:40:36.383Z,0.10
2023-02-04T00:43:05.877Z,0.60
2023-02-04T00:45:35.837Z,0.60
2023-02-04T00:50:38.857Z,0.60
2023-02-04T00:53:05.850Z,0.40
2023-02-04T00:55:35.498Z,0.40
2023-02-04T00:58:05.503Z,0.40
2023-02-04T01:00:35.517Z,0.40
2023-02-04T01:03:05.526Z,0.10
2023-02-04T01:05:35.479Z,0.10
2023-02-04T01:10:35.690Z,0.10
2023-02-04T01:13:07.323Z,1.00
2023-02-04T01:20:35.444Z,1.00
2023-02-04T01:23:05.590Z,3.30
2023-02-04T01:25:35.640Z,3.30
2023-02-04T01:28:05.542Z,3.30
2023-02-04T01:30:35.492Z,3.30
2023-02-04T01:33:05.795Z,1.20
2023-02-04T01:35:35.625Z,1.20
2023-02-04T01:38:05.576Z,1.20
2023-02-04T01:43:06.410Z,0.10
2023-02-04T01:45:36.120Z,0.10
2023-02-04T01:48:06.902Z,0.10
2023-02-04T01:50:35.918Z,0.10
2023-02-04T01:53:05.710Z,0.30
2023-02-04T01:55:35.729Z,0.30
2023-02-04T01:58:09.377Z,0.30
2023-02-04T02:00:35.540Z,0.30
2023-02-04T02:03:08.219Z,0.70
2023-02-04T02:08:06.946Z,0.70
2023-02-04T02:10:38.355Z,0.70
2023-02-04T02:13:07.704Z,1.00
2023-02-04T02:15:35.553Z,1.00
2023-02-04T02:18:05.979Z,1.00
2023-02-04T02:20:36.282Z,1.00
2023-02-04T02:23:17.872Z,0.70
2023-02-04T02:25:35.957Z,0.70
2023-02-04T02:28:09.486Z,0.70
2023-02-04T02:30:35.716Z,0.70
2023-02-04T02:33:06.889Z,1.00
2023-02-04T02:35:35.653Z,1.00
2023-02-04T02:38:05.575Z,1.00
2023-02-04T02:40:36.451Z,1.00
2023-02-04T02:43:06.432Z,0.40
2023-02-04T02:45:35.930Z,0.40
2023-02-04T02:48:05.610Z,0.40
2023-02-04T02:53:10.134Z,0.20
2023-02-04T02:55:35.704Z,0.20
2023-02-04T02:58:14.335Z,0.20
2023-02-04T03:00:35.458Z,0.20
2023-02-04T03:03:09.972Z,2.00
2023-02-04T03:05:40.179Z,2.00
2023-02-04T03:08:06.013Z,2.00
2023-02-04T03:10:36.284Z,2.00
2023-02-04T03:13:06.027Z,7.10
2023-02-04T03:15:35.830Z,7.10
2023-02-04T03:18:05.830Z,7.10
2023-02-04T03:20:36.691Z,7.10
2023-02-04T03:23:05.690Z,1.10
2023-02-04T03:25:35.606Z,1.10
2023-02-04T03:28:05.953Z,1.10
2023-02-04T03:30:35.779Z,1.10
2023-02-04T03:35:35.591Z,0.30
2023-02-04T03:38:05.482Z,0.30
2023-02-04T03:40:35.471Z,0.30
2023-02-04T03:43:05.566Z,1.10
2023-02-04T03:45:44.913Z,1.10
2023-02-04T03:48:05.712Z,1.10
2023-02-04T03:50:35.661Z,1.10
2023-02-04T03:55:35.722Z,0.10
2023-02-04T03:58:05.484Z,0.10
2023-02-04T04:00:35.596Z,0.10
2023-02-04T04:03:05.624Z,0.50
2023-02-04T04:05:35.926Z,0.50
2023-02-04T04:08:05.753Z,0.50
2023-02-04T04:15:35.686Z,0.50
2023-02-04T04:18:05.557Z,0.50
2023-02-04T04:20:35.725Z,0.50
2023-02-04T04:23:05.533Z,1.80
2023-02-04T04:25:35.513Z,1.80
2023-02-04T04:33:05.623Z,0.40
2023-02-04T04:40:35.601Z,0.40
2023-02-04T04:43:05.700Z,0.60
2023-02-04T04:45:36.013Z,0.60
2023-02-04T04:48:05.831Z,0.60
2023-02-04T04:53:10.232Z,0.30
2023-02-04T04:55:35.717Z,0.30
2023-02-04T04:58:06.869Z,0.30
2023-02-04T05:05:39.269Z,0.20
2023-02-04T05:10:35.692Z,0.20
2023-02-04T05:13:06.232Z,0.80
2023-02-04T05:23:05.945Z,0.40
2023-02-04T05:25:35.833Z,0.40
2023-02-04T05:30:35.785Z,0.40
2023-02-04T05:33:05.533Z,0.20
2023-02-04T05:38:06.134Z,0.20
2023-02-04T05:40:36.155Z,0.20
2023-02-04T05:45:35.642Z,1.00
2023-02-04T05:48:05.521Z,1.00
2023-02-04T05:50:35.870Z,1.00
2023-02-04T05:53:05.617Z,0.40
2023-02-04T05:55:35.552Z,0.40
2023-02-04T05:58:05.533Z,0.40
2023-02-04T06:00:35.606Z,0.40
2023-02-04T06:03:06.657Z,0.20
2023-02-04T06:05:35.687Z,0.20
2023-02-04T06:08:05.788Z,0.20
2023-02-04T06:10:35.648Z,0.20
2023-02-04T06:13:05.544Z,0.10
2023-02-04T06:15:36.205Z,0.10
2023-02-04T06:18:05.741Z,0.10
2023-02-04T06:20:35.525Z,0.10
2023-02-04T06:23:05.583Z,0.10
2023-02-04T06:25:36.852Z,0.10
2023-02-04T06:28:05.928Z,0.10
2023-02-04T06:30:36.874Z,0.60
2023-02-04T06:33:05.589Z,0.60
2023-02-04T06:35:35.782Z,0.60
2023-02-04T06:38:05.965Z,0.60
2023-02-04T06:40:35.589Z,0.90
2023-02-04T06:43:05.649Z,0.90
2023-02-04T06:45:35.720Z,0.90
2023-02-04T06:48:06.046Z,0.90
2023-02-04T06:50:35.575Z,0.30
2023-02-04T06:53:05.549Z,0.30
2023-02-04T06:55:36.045Z,0.30
2023-02-04T06:58:05.576Z,0.30
2023-02-04T07:00:35.794Z,0.20
2023-02-04T07:03:06.694Z,0.20
2023-02-04T07:05:35.598Z,0.20
2023-02-04T07:08:05.845Z,0.20
2023-02-04T07:10:36.276Z,0.10
2023-02-04T07:13:05.528Z,0.10
2023-02-04T07:15:35.909Z,0.10
2023-02-04T07:18:05.555Z,0.10
2023-02-04T07:20:35.975Z,0.10
2023-02-04T07:23:05.612Z,0.10
2023-02-04T07:25:35.636Z,0.10
2023-02-04T07:28:05.980Z,0.10
2023-02-04T07:30:35.921Z,0.50
2023-02-04T07:33:05.969Z,0.50
2023-02-04T07:35:37.326Z,0.50
2023-02-04T07:38:05.967Z,0.50
2023-02-04T07:40:35.706Z,0.70
2023-02-04T07:43:05.580Z,0.70
2023-02-04T07:45:35.813Z,0.70
2023-02-04T07:48:05.720Z,0.70
2023-02-04T07:50:35.828Z,0.30
2023-02-04T07:53:05.628Z,0.30
2023-02-04T07:58:06.020Z,0.30
2023-02-04T08:00:35.594Z,0.30
2023-02-04T08:03:05.592Z,0.30
2023-02-04T08:05:35.853Z,0.30
2023-02-04T08:08:05.568Z,0.30
2023-02-04T08:10:36.224Z,0.10
2023-02-04T08:13:05.604Z,0.10
2023-02-04T08:15:35.589Z,0.10
2023-02-04T08:18:06.036Z,0.10
2023-02-04T08:20:35.775Z,0.40
2023-02-04T08:23:06.083Z,0.40
2023-02-04T08:25:36.064Z,0.40
2023-02-04T08:28:05.677Z,0.40
2023-02-04T08:30:35.656Z,0.80
2023-02-04T08:33:05.615Z,0.80
2023-02-04T08:35:36.215Z,0.80
2023-02-04T08:38:05.587Z,0.80
2023-02-04T08:40:36.561Z,1.60
2023-02-04T08:43:05.900Z,1.60
2023-02-04T08:45:35.594Z,1.60
2023-02-04T08:48:08.459Z,1.60
2023-02-04T08:50:38.813Z,0.10
2023-02-04T08:53:05.585Z,0.10
2023-02-04T08:55:35.934Z,0.10
2023-02-04T09:00:36.147Z,0.10
2023-02-04T09:03:05.789Z,0.10
2023-02-04T09:05:35.615Z,0.10
2023-02-04T09:08:05.621Z,0.10
2023-02-04T09:10:35.820Z,1.70
2023-02-04T09:13:08.322Z,1.70
2023-02-04T09:15:35.602Z,1.70
2023-02-04T09:18:13.819Z,1.70
2023-02-04T09:20:36.208Z,0.30
2023-02-04T09:23:07.947Z,0.30
2023-02-04T09:25:36.112Z,0.30
2023-02-04T09:28:08.988Z,0.30
2023-02-04T09:30:36.464Z,0.40
2023-02-04T09:33:06.734Z,0.40
2023-02-04T09:35:35.607Z,0.40
2023-02-04T09:38:05.979Z,0.40
2023-02-04T09:43:05.892Z,0.30
2023-02-04T09:45:36.065Z,0.30
2023-02-04T09:48:12.271Z,0.30
2023-02-04T09:50:35.837Z,0.10
2023-02-04T09:53:07.059Z,0.10
2023-02-04T09:55:40.452Z,0.10
2023-02-04T09:58:15.126Z,0.10
2023-02-04T10:00:35.743Z,0.20
2023-02-04T10:03:13.637Z,0.20
2023-02-04T10:05:36.424Z,0.20
2023-02-04T10:08:05.670Z,0.20
2023-02-04T10:10:36.889Z,0.20
2023-02-04T10:13:09.677Z,0.20
2023-02-04T10:15:35.713Z,0.20
2023-02-04T10:18:07.575Z,0.20
2023-02-04T10:20:36.845Z,1.20
2023-02-04T10:23:11.334Z,1.20
2023-02-04T10:25:36.571Z,1.20
2023-02-04T10:28:05.986Z,1.20
2023-02-04T10:30:40.421Z,0.20
2023-02-04T10:33:12.458Z,0.20
2023-02-04T10:35:44.428Z,0.20
2023-02-04T10:38:06.617Z,0.20
2023-02-04T10:40:36.202Z,0.10
2023-02-04T10:43:09.471Z,0.10
2023-02-04T10:45:36.812Z,0.10
2023-02-04T10:48:06.951Z,0.10
2023-02-04T10:50:35.816Z,0.20
2023-02-04T10:53:20.881Z,0.20
2023-02-04T10:55:36.451Z,0.20
2023-02-04T10:58:10.013Z,0.20
2023-02-04T11:00:35.639Z,0.10
2023-02-04T11:03:10.687Z,0.10
2023-02-04T11:05:36.384Z,0.10
2023-02-04T11:08:19.052Z,0.10
2023-02-04T11:10:35.927Z,0.20
2023-02-04T11:13:06.196Z,0.20
2023-02-04T11:15:41.335Z,0.20
2023-02-04T11:18:08.157Z,0.20
2023-02-04T11:20:38.996Z,0.10
2023-02-04T11:23:15.627Z,0.10
2023-02-04T11:25:38.637Z,0.10
2023-02-04T11:28:23.284Z,0.10
2023-02-04T11:30:36.023Z,0.10
2023-02-04T11:33:15.942Z,0.10
2023-02-04T11:35:36.132Z,0.10
2023-02-04T11:38:24.369Z,0.10
2023-02-04T11:40:38.583Z,0.20
2023-02-04T11:43:12.438Z,0.20
2023-02-04T11:45:36.771Z,0.20
2023-02-04T11:48:12.291Z,0.20
2023-02-04T11:50:37.414Z,0.40
2023-02-04T11:53:05.899Z,0.40
2023-02-04T11:55:43.876Z,0.40
2023-02-04T11:58:14.004Z,0.40
2023-02-04T12:00:37.296Z,0.60
2023-02-04T12:03:21.384Z,0.60
2023-02-04T12:05:39.956Z,0.60
2023-02-04T12:08:12.028Z,0.60
2023-02-04T12:10:35.887Z,0.30
2023-02-04T12:13:15.562Z,0.30
2023-02-04T12:15:36.574Z,0.30
2023-02-04T12:18:08.477Z,0.30
2023-02-04T12:20:36.450Z,0.60
2023-02-04T12:23:05.879Z,0.60
2023-02-04T12:25:35.706Z,0.60
2023-02-04T12:28:06.069Z,0.60
2023-02-04T12:30:35.891Z,0.40
2023-02-04T12:33:06.370Z,0.40
2023-02-04T12:35:36.410Z,0.40
2023-02-04T12:38:06.398Z,0.40
2023-02-04T12:40:36.737Z,0.30
2023-02-04T12:43:05.925Z,0.30
2023-02-04T13:04:45.870Z,0.10
2023-02-04T13:07:15.480Z,0.10
2023-02-04T13:09:45.593Z,0.10
2023-02-04T13:12:15.772Z,0.30
2023-02-04T13:14:45.560Z,0.30
2023-02-04T14:23:52.676Z,1.40
2023-02-04T14:23:55.016Z,1.40
2023-02-04T14:26:25.332Z,1.40
2023-02-04T14:28:55.333Z,1.40
2023-02-04T14:31:25.260Z,7.30
2023-02-04T14:33:55.814Z,7.30
2023-02-04T14:36:25.285Z,7.30
2023-02-04T14:38:55.687Z,7.30
2023-02-04T14:41:25.473Z,0.60
2023-02-04T14:43:55.249Z,0.60
2023-02-04T14:46:25.532Z,0.60
2023-02-04T14:48:55.208Z,0.60
2023-02-04T14:51:25.343Z,0.10
2023-02-04T14:53:55.273Z,0.10
2023-02-04T14:56:26.244Z,0.10
2023-02-04T14:58:55.434Z,0.10
2023-02-04T15:01:26.764Z,0.20
2023-02-04T15:03:55.262Z,0.20
2023-02-04T15:06:25.241Z,0.20
2023-02-04T15:08:56.383Z,0.20
2023-02-04T15:11:25.325Z,0.20
2023-02-04T15:13:55.205Z,0.20
2023-02-04T15:16:25.324Z,0.20
2023-02-04T15:18:55.558Z,0.20
2023-02-04T15:21:27.208Z,0.60
2023-02-04T15:23:55.458Z,0.60
2023-02-04T15:26:25.513Z,0.60
2023-02-04T15:28:55.439Z,0.60
2023-02-04T15:31:26.698Z,0.20
2023-02-04T15:33:55.543Z,0.20
2023-02-04T15:36:25.511Z,0.20
2023-02-04T15:38:55.231Z,0.20
2023-02-04T15:41:25.314Z,0.10
2023-02-04T15:43:55.309Z,0.10
2023-02-04T15:46:25.645Z,0.10
2023-02-04T15:48:55.592Z,0.10
2023-02-04T15:51:26.955Z,0.50
2023-02-04T15:53:55.327Z,0.50
2023-02-04T15:56:25.668Z,0.50
2023-02-04T15:58:56.085Z,0.50
2023-02-04T16:01:25.539Z,0.20
2023-02-04T16:03:55.873Z,0.20
2023-02-04T16:06:25.475Z,0.20
2023-02-04T16:08:55.258Z,0.20
2023-02-04T16:11:25.554Z,1.50
2023-02-04T16:13:55.316Z,1.50
2023-02-04T16:16:25.362Z,1.50
2023-02-04T16:18:55.341Z,1.50
2023-02-04T16:21:25.264Z,3.30
2023-02-04T16:23:55.267Z,3.30
2023-02-04T16:26:25.799Z,3.30
2023-02-04T16:28:55.437Z,3.30
2023-02-04T16:31:25.409Z,0.30
2023-02-04T16:33:55.417Z,0.30
2023-02-04T16:36:25.371Z,0.30
2023-02-04T16:38:58.035Z,0.30
2023-02-04T16:41:25.261Z,0.40
2023-02-04T16:43:55.312Z,0.40
2023-02-04T16:46:27.051Z,0.40
2023-02-04T16:48:55.659Z,0.40
2023-02-04T16:51:25.687Z,0.40
2023-02-04T16:53:55.841Z,0.40
2023-02-04T16:56:29.192Z,0.40
2023-02-04T16:58:55.233Z,0.40
2023-02-04T17:01:26.319Z,0.10
2023-02-04T17:03:57.370Z,0.10
2023-02-04T17:06:25.888Z,0.10
2023-02-04T17:08:55.789Z,0.10
2023-02-04T17:11:30.351Z,0.10
2023-02-04T17:13:55.946Z,0.10
2023-02-04T17:16:25.883Z,0.10
2023-02-04T17:18:55.995Z,0.10
2023-02-04T17:21:26.561Z,0.40
2023-02-04T17:23:56.935Z,0.40
2023-02-04T17:26:25.244Z,0.40
2023-02-04T17:28:55.563Z,0.40
2023-02-04T17:31:25.465Z,1.50
2023-02-04T17:33:55.315Z,1.50
2023-02-04T17:36:25.405Z,1.50
2023-02-04T17:38:55.525Z,1.50
2023-02-04T17:41:26.005Z,1.60
2023-02-04T17:43:55.339Z,1.60
2023-02-04T17:46:25.888Z,1.60
2023-02-04T17:48:55.790Z,1.60
2023-02-04T17:51:25.547Z,0.10
2023-02-04T17:53:55.650Z,0.10
2023-02-04T17:56:26.110Z,0.10
2023-02-04T17:58:55.975Z,0.10
2023-02-04T18:01:25.478Z,0.30
2023-02-04T18:03:56.605Z,0.30
2023-02-04T18:09:00.574Z,0.30
2023-02-04T18:11:28.345Z,0.20
2023-02-04T18:14:01.396Z,0.20
2023-02-04T18:16:29.193Z,0.20
2023-02-04T18:18:59.485Z,0.20
2023-02-04T18:21:28.719Z,0.20
2023-02-04T18:24:02.788Z,0.20
2023-02-04T18:26:25.274Z,0.20
2023-02-04T18:28:55.372Z,0.20
2023-02-04T18:31:32.801Z,0.20
2023-02-04T18:36:27.179Z,0.20
2023-02-04T18:38:55.386Z,0.20
2023-02-04T18:41:32.158Z,0.40
2023-02-04T18:44:01.689Z,0.40
2023-02-04T18:46:28.793Z,0.40
2023-02-04T18:49:03.568Z,0.40
2023-02-04T18:51:29.005Z,0.10
2023-02-04T18:53:59.463Z,0.10
2023-02-04T18:56:26.468Z,0.10
2023-02-04T18:58:55.619Z,0.10
2023-02-04T19:01:38.073Z,0.40
2023-02-04T19:03:58.490Z,0.40
2023-02-04T19:06:27.743Z,0.40
2023-02-04T19:09:07.077Z,0.40
2023-02-04T19:11:34.002Z,0.20
2023-02-04T19:13:57.571Z,0.20
2023-02-04T19:16:28.818Z,0.20
2023-02-04T19:18:55.985Z,0.20
2023-02-04T19:21:33.187Z,0.50
2023-02-04T19:24:07.098Z,0.50
2023-02-04T19:26:31.264Z,0.50
2023-02-04T19:28:55.816Z,0.50
2023-02-04T19:31:32.364Z,0.10
2023-02-04T19:38:58.752Z,0.10
2023-02-04T19:44:05.435Z,0.30
2023-02-04T19:46:26.807Z,0.30
2023-02-04T19:48:55.593Z,0.30
2023-02-04T19:51:27.742Z,0.10
2023-02-04T19:54:09.288Z,0.10
2023-02-04T19:56:31.560Z,0.10
2023-02-04T19:58:56.604Z,0.10
2023-02-04T20:01:25.512Z,0.20
2023-02-04T20:03:55.720Z,0.20
2023-02-04T20:06:30.735Z,0.20
2023-02-04T20:08:57.685Z,0.20
2023-02-04T20:11:37.295Z,0.20
2023-02-04T20:14:11.318Z,0.20
2023-02-04T20:16:37.670Z,0.20
2023-02-04T20:18:55.590Z,0.20
2023-02-04T20:21:25.365Z,0.10
2023-02-04T20:23:55.412Z,0.10
2023-02-04T20:26:25.500Z,0.10
2023-02-04T20:28:55.562Z,0.10
2023-02-04T20:31:27.914Z,0.10
2023-02-04T20:33:58.344Z,0.10
2023-02-04T20:36:35.135Z,0.10
2023-02-04T20:39:15.098Z,0.10
2023-02-04T20:41:25.405Z,0.50
2023-02-04T20:43:55.746Z,0.50
2023-02-04T20:46:25.601Z,0.50
2023-02-04T20:48:55.832Z,0.50
2023-02-04T20:51:26.272Z,0.10
2023-02-04T20:56:27.368Z,0.10
2023-02-04T20:59:06.362Z,0.10
2023-02-04T21:01:32.966Z,0.50
2023-02-04T21:06:27.644Z,0.50
2023-02-04T21:08:57.144Z,0.50
2023-02-04T21:11:26.044Z,0.60
2023-02-04T21:13:55.531Z,0.60
2023-02-04T21:16:25.902Z,0.60
2023-02-04T21:18:55.564Z,0.60
2023-02-04T21:21:25.368Z,0.20
2023-02-04T21:23:55.621Z,0.20
2023-02-04T21:26:25.525Z,0.20
2023-02-04T21:28:55.377Z,0.20
2023-02-04T21:33:56.498Z,0.40
2023-02-04T21:36:26.724Z,0.40
2023-02-04T21:38:56.979Z,0.40
2023-02-04T21:43:55.411Z,0.40
2023-02-04T21:46:26.060Z,0.40
2023-02-04T21:48:55.421Z,0.40
2023-02-04T21:53:59.099Z,0.50
2023-02-04T21:58:57.088Z,0.50
2023-02-04T22:03:55.628Z,0.30
2023-02-04T22:06:25.499Z,0.30
2023-02-04T22:08:55.393Z,0.30
2023-02-04T22:13:55.656Z,0.50
2023-02-04T22:16:25.376Z,0.50
2023-02-04T22:23:55.706Z,4.00
2023-02-04T22:28:55.631Z,4.00
2023-02-04T22:31:25.694Z,0.40
2023-02-04T22:43:55.461Z,0.30
2023-02-04T22:46:25.457Z,0.30
2023-02-04T22:48:55.712Z,0.30
2023-02-04T22:51:25.521Z,5.60
2023-02-04T22:53:55.382Z,5.60
2023-02-04T22:56:26.044Z,5.60
2023-02-04T22:58:55.970Z,5.60
2023-02-04T23:01:26.585Z,0.10
2023-02-04T23:06:25.532Z,0.10
2023-02-04T23:08:56.109Z,0.10
2023-02-04T23:13:55.403Z,0.20
2023-02-04T23:18:55.402Z,0.20
2023-02-04T23:21:25.817Z,1.50
2023-02-04T23:23:56.510Z,1.50
2023-02-04T23:26:26.036Z,1.50
2023-02-04T23:28:57.117Z,1.50
2023-02-04T23:31:25.567Z,1.20
2023-02-04T23:33:55.628Z,1.20
2023-02-04T23:41:25.569Z,0.10
2023-02-04T23:43:55.370Z,0.10
2023-02-04T23:46:27.354Z,0.10
2023-02-04T23:51:25.552Z,0.40
2023-02-04T23:53:55.421Z,0.40
2023-02-04T23:56:25.599Z,0.40
2023-02-04T23:58:56.113Z,0.40
